CYBW/YBW METAR and TAF weather

Enter ICAO airport designator
Station Type Date Time Source
CYBW METAR 2018/10/21 04:00 UTC NOAA

CYBW 210400Z AUTO VRB02KT 9SM CLR 06/M05 A3006 RMK SLP203


Station Type Date Time Source
CYBW Decoded METAR 2018/10/21 04:00 UTC NOAA

Calgary / Springbank, Canada (CYBW) 51-06N 114-22W
Oct 21, 2018 - 12:00 AM EDT / 2018.10.21 0400 UTC
Wind: Variable at 2 MPH (2 KT):0
Visibility: 9 mile(s):0
Sky conditions: clear
Temperature: 42 F (6 C)
Dew Point: 23 F (-5 C)
Relative Humidity: 45%
Pressure (altimeter): 30.06 in. Hg (1017 hPa)
ob: CYBW 210400Z AUTO VRB02KT 9SM CLR 06/M05 A3006 RMK SLP203
cycle: 4

Station Type Date Time Source
CYBW TAF 2018/10/20 18:00 UTC NOAA

TAF CYBW 201738Z 2018/2104 33005KT P6SM SKC
BECMG 2018/2019 35012KT
BECMG 2020/2022 VRB03KT
RMK FCST BASED ON AUTO OBS. NXT FCST BY 210000Z


Example: see airport list